createdAt,value
2024-04-18T00:01:37.376Z,100888.66
2024-04-18T00:04:10.235Z,100901.16
2024-04-18T00:06:37.825Z,100906.41
2024-04-18T00:09:10.456Z,100909.25
2024-04-18T00:11:37.691Z,100907.22
2024-04-18T00:14:14.539Z,100907.63
2024-04-18T00:16:41.709Z,100907.22
2024-04-18T00:19:23.317Z,100907.22
2024-04-18T00:21:56.311Z,100912.88
2024-04-18T00:24:29.373Z,100912.88
2024-04-18T00:26:57.142Z,100908.84
2024-04-18T00:29:36.170Z,100906.41
2024-04-18T00:32:11.991Z,100915.69
2024-04-18T00:35:04.592Z,100918.50
2024-04-18T00:37:37.616Z,100918.50
2024-04-18T00:40:07.749Z,100910.44
2024-04-18T00:42:39.204Z,100920.91
2024-04-18T00:45:09.425Z,100910.44
2024-04-18T00:47:47.051Z,100918.50
2024-04-18T00:50:20.345Z,100917.69
2024-04-18T00:52:48.047Z,100923.34
2024-04-18T00:55:31.053Z,100927.38
2024-04-18T00:58:11.652Z,100928.16
2024-04-18T01:00:45.378Z,100931.41
2024-04-18T01:03:31.623Z,100919.72
2024-04-18T01:06:13.806Z,100924.53
2024-04-18T01:09:01.915Z,100922.94
2024-04-18T01:11:35.178Z,100928.16
2024-04-18T01:14:07.456Z,100931.41
2024-04-18T01:16:56.014Z,100944.31
2024-04-18T01:19:23.291Z,100937.44
2024-04-18T01:21:57.558Z,100942.28
2024-04-18T01:24:25.369Z,100931.41
2024-04-18T01:26:57.868Z,100931.41
2024-04-18T01:29:43.372Z,100926.94
2024-04-18T01:32:32.222Z,100944.31
2024-04-18T01:34:59.614Z,100935.41
2024-04-18T01:37:48.947Z,100935.41
2024-04-18T01:40:16.367Z,100932.19
2024-04-18T01:42:49.064Z,100946.28
2024-04-18T01:45:25.217Z,100945.09
2024-04-18T01:48:15.216Z,100935.41
2024-04-18T01:51:04.408Z,100944.69
2024-04-18T01:53:37.856Z,100949.13
2024-04-18T01:56:18.173Z,100951.53
2024-04-18T01:58:52.029Z,100956.38
2024-04-18T02:01:23.877Z,100957.19
2024-04-18T02:03:54.287Z,100962.00
2024-04-18T02:06:21.619Z,100960.41
2024-04-18T02:08:51.639Z,100958.78
2024-04-18T02:11:41.390Z,100963.22
2024-04-18T02:14:17.346Z,100958.78
2024-04-18T02:16:44.600Z,100958.78
2024-04-18T02:19:32.748Z,100956.75
2024-04-18T02:22:21.389Z,100965.22
2024-04-18T02:25:10.164Z,100973.31
2024-04-18T02:27:40.483Z,100966.81
2024-04-18T02:30:28.529Z,100971.66
2024-04-18T02:33:13.942Z,100974.13
2024-04-18T02:35:47.052Z,100975.28
2024-04-18T02:38:36.116Z,100974.91
2024-04-18T02:41:04.113Z,100987.41
2024-04-18T02:43:53.438Z,100984.97
2024-04-18T02:46:24.053Z,100991.03
2024-04-18T02:49:12.583Z,100987.41
2024-04-18T02:51:57.785Z,100991.81
2024-04-18T02:54:46.448Z,100991.81
2024-04-18T02:57:13.859Z,100994.25
2024-04-18T02:59:43.873Z,100994.25
2024-04-18T03:02:26.145Z,100997.44
2024-04-18T03:05:16.051Z,100996.63
2024-04-18T03:07:43.199Z,100996.63
2024-04-18T03:10:13.075Z,100990.22
2024-04-18T03:12:58.614Z,100991.00
2024-04-18T03:15:47.971Z,100998.28
2024-04-18T03:18:18.307Z,100998.28
2024-04-18T03:20:55.225Z,101001.50
2024-04-18T03:23:41.076Z,101007.91
2024-04-18T03:26:12.482Z,101009.56
2024-04-18T03:28:39.769Z,101007.56
2024-04-18T03:31:09.687Z,101015.22
2024-04-18T03:33:39.660Z,101015.22
2024-04-18T03:36:09.990Z,101022.47
2024-04-18T03:38:39.937Z,101018.81
2024-04-18T03:41:09.740Z,101021.63
2024-04-18T03:44:00.418Z,101017.59
2024-04-18T03:46:30.317Z,100933.88
2024-04-18T03:49:05.681Z,101014.38
2024-04-18T03:51:33.208Z,101029.69
2024-04-18T03:54:25.995Z,101029.69
2024-04-18T03:56:53.360Z,101024.03
2024-04-18T03:59:23.215Z,101028.03
2024-04-18T04:01:50.487Z,101034.09
2024-04-18T04:04:23.175Z,101047.44
2024-04-18T04:06:50.500Z,101041.38
2024-04-18T04:09:20.524Z,101037.34
2024-04-18T04:11:48.631Z,101044.59
2024-04-18T04:14:18.408Z,101050.63
2024-04-18T04:16:54.637Z,101047.44
2024-04-18T04:19:27.281Z,101044.97
2024-04-18T04:21:55.245Z,101049.00
2024-04-18T04:24:25.190Z,101056.25
2024-04-18T04:26:52.586Z,101056.25
2024-04-18T04:29:22.495Z,101056.25
2024-04-18T04:31:49.655Z,101055.09
2024-04-18T04:34:19.741Z,101054.66
2024-04-18T04:36:49.745Z,101059.09
2024-04-18T04:39:19.814Z,101065.97
2024-04-18T04:41:46.985Z,101074.41
2024-04-18T04:44:16.747Z,101092.53
2024-04-18T04:46:50.149Z,101080.88
2024-04-18T04:49:20.336Z,101077.22
2024-04-18T04:52:07.145Z,101088.16
2024-04-18T04:54:43.946Z,101090.56
2024-04-18T04:57:11.937Z,101086.94
2024-04-18T04:59:41.869Z,101100.63
2024-04-18T05:02:11.845Z,101099.03
2024-04-18T05:04:48.831Z,101093.38
2024-04-18T05:07:36.524Z,101110.31
2024-04-18T05:10:22.640Z,101109.50
2024-04-18T05:12:52.867Z,101109.47
2024-04-18T05:15:38.662Z,101121.97
2024-04-18T05:18:06.348Z,101124.78
2024-04-18T05:20:36.302Z,101129.63
2024-04-18T05:23:08.573Z,101126.44
2024-04-18T05:25:39.700Z,101130.44
2024-04-18T05:28:22.570Z,101128.41
2024-04-18T05:31:06.580Z,101125.59
2024-04-18T05:33:34.824Z,101128.00
2024-04-18T05:36:04.878Z,101132.88
2024-04-18T05:38:37.392Z,101135.72
2024-04-18T05:41:07.522Z,101145.38
2024-04-18T05:43:52.780Z,101144.97
2024-04-18T05:46:22.701Z,101145.78
2024-04-18T05:48:53.063Z,101154.66
2024-04-18T05:51:23.470Z,101152.66
2024-04-18T05:54:19.375Z,101157.06
2024-04-18T05:57:07.506Z,101168.38
2024-04-18T05:59:53.604Z,101166.75
2024-04-18T06:02:23.636Z,101165.94
2024-04-18T06:04:53.795Z,101163.94
2024-04-18T06:07:45.711Z,101167.16
2024-04-18T06:10:19.058Z,101174.00
2024-04-18T06:12:49.173Z,101162.72
2024-04-18T06:15:19.798Z,101177.63
2024-04-18T06:17:49.765Z,101179.66
2024-04-18T06:20:19.934Z,101176.84
2024-04-18T06:22:49.941Z,101185.28
2024-04-18T06:25:32.559Z,101179.66
2024-04-18T06:28:03.133Z,101188.94
2024-04-18T06:30:33.178Z,101192.56
2024-04-18T06:33:03.355Z,101186.91
2024-04-18T06:35:33.446Z,101184.09
2024-04-18T06:38:03.327Z,101182.06
2024-04-18T06:40:36.010Z,101192.56
2024-04-18T06:43:06.129Z,101198.19
2024-04-18T06:45:37.712Z,101201.88
2024-04-18T06:48:08.459Z,101208.72
2024-04-18T06:50:38.668Z,101203.91
2024-04-18T06:53:08.709Z,101203.84
2024-04-18T06:55:44.248Z,101203.84
2024-04-18T06:58:14.204Z,101206.31
2024-04-18T07:00:44.311Z,101214.00
2024-04-18T07:03:17.156Z,101208.72
2024-04-18T07:05:53.612Z,101221.63
2024-04-18T07:08:27.138Z,101219.63
2024-04-18T07:11:00.644Z,101228.06
2024-04-18T07:13:33.167Z,101221.63
2024-04-18T07:16:24.239Z,101224.84
2024-04-18T07:18:57.788Z,101228.88
2024-04-18T07:21:27.875Z,101228.94
2024-04-18T07:24:16.818Z,101230.50
2024-04-18T07:26:52.291Z,101229.69
2024-04-18T07:29:23.304Z,101232.13
2024-04-18T07:31:53.741Z,101233.31
2024-04-18T07:34:23.601Z,101236.97
2024-04-18T07:36:53.751Z,101238.63
2024-04-18T07:39:23.815Z,101236.19
2024-04-18T07:41:56.459Z,101238.56
2024-04-18T07:44:26.471Z,101229.63
2024-04-18T07:46:56.503Z,101246.22
2024-04-18T07:49:26.573Z,101234.53
2024-04-18T07:51:57.587Z,101202.44
2024-04-18T07:54:27.820Z,101244.22
2024-04-18T07:57:01.138Z,101250.63
2024-04-18T07:59:32.190Z,101249.44
2024-04-18T08:02:04.179Z,101240.97
2024-04-18T08:05:00.467Z,101249.44
2024-04-18T08:07:34.979Z,101252.66
2024-04-18T08:10:11.071Z,101253.88
2024-04-18T08:12:50.718Z,101249.84
2024-04-18T08:18:13.484Z,101258.31
2024-04-18T08:20:43.507Z,101255.50
2024-04-18T08:23:13.639Z,101256.69
2024-04-18T08:25:43.725Z,101253.88
2024-04-18T08:28:16.495Z,101264.72
2024-04-18T08:30:46.679Z,101263.56
2024-04-18T08:33:16.783Z,101257.91
2024-04-18T08:35:48.028Z,101260.28
2024-04-18T08:38:18.949Z,101257.84
2024-04-18T08:40:49.670Z,101255.09
2024-04-18T08:43:22.711Z,101260.72
2024-04-18T08:45:54.238Z,101250.63
2024-04-18T08:48:25.649Z,101248.59
2024-04-18T08:50:55.640Z,101253.88
2024-04-18T08:53:25.728Z,101249.00
2024-04-18T08:55:58.207Z,101250.19
2024-04-18T08:58:32.457Z,101218.19
2024-04-18T09:01:03.054Z,101249.34
2024-04-18T09:03:33.125Z,101247.34
2024-04-18T09:06:04.186Z,101244.16
2024-04-18T09:08:35.029Z,101248.16
2024-04-18T09:11:05.910Z,101245.72
2024-04-18T09:13:38.567Z,101247.72
2024-04-18T09:16:08.816Z,101244.91
2024-04-18T09:18:39.985Z,101249.78
2024-04-18T09:21:11.567Z,101245.75
2024-04-18T09:23:41.718Z,101250.63
2024-04-18T09:26:12.350Z,101254.66
2024-04-18T09:28:44.971Z,101253.03
2024-04-18T09:31:19.285Z,101251.41
2024-04-18T09:33:53.116Z,101245.75
2024-04-18T09:36:23.541Z,101245.75
2024-04-18T09:38:54.080Z,101253.78
2024-04-18T09:41:25.069Z,101259.88
2024-04-18T09:44:03.687Z,101251.38
2024-04-18T09:46:34.938Z,101248.50
2024-04-18T09:49:05.891Z,101248.16
2024-04-18T09:51:36.115Z,101248.16
2024-04-18T09:54:08.058Z,101246.53
2024-04-18T09:56:38.695Z,101252.22
2024-04-18T09:59:14.051Z,101247.38
2024-04-18T10:01:45.075Z,101251.41
2024-04-18T10:04:15.209Z,101249.78
2024-04-18T10:06:47.832Z,101242.09
2024-04-18T10:09:19.009Z,101246.56
2024-04-18T10:11:49.962Z,101244.97
2024-04-18T10:14:23.272Z,101251.81
2024-04-18T10:16:53.794Z,101259.09
2024-04-18T10:19:25.351Z,101253.44
2024-04-18T10:22:10.872Z,101250.63
2024-04-18T10:24:52.387Z,101259.53
2024-04-18T10:27:24.231Z,101254.69
2024-04-18T10:30:00.608Z,101261.13
2024-04-18T10:32:31.582Z,101253.47
2024-04-18T10:35:02.357Z,101249.84
2024-04-18T10:37:29.810Z,101253.06
2024-04-18T10:40:01.274Z,101257.91
2024-04-18T10:42:34.026Z,101258.72
2024-04-18T10:45:05.355Z,101260.72
2024-04-18T10:47:35.678Z,101246.56
2024-04-18T10:50:05.936Z,101253.03
2024-04-18T10:52:38.966Z,101256.25
2024-04-18T10:55:09.963Z,101269.19
2024-04-18T10:57:41.314Z,101277.22
2024-04-18T11:00:18.738Z,101269.97
2024-04-18T11:02:49.072Z,101273.19
2024-04-18T11:05:19.373Z,101279.63
2024-04-18T11:07:51.654Z,101279.63
2024-04-18T11:10:21.969Z,101283.25
2024-04-18T11:12:52.174Z,101278.03
2024-04-18T11:15:25.169Z,101268.75
2024-04-18T11:17:55.595Z,101265.94
2024-04-18T11:20:26.859Z,101269.19
2024-04-18T11:23:05.543Z,101269.19
2024-04-18T11:25:51.847Z,101270.81
2024-04-18T11:28:27.957Z,101265.97
2024-04-18T11:31:02.548Z,101256.31
2024-04-18T11:33:32.680Z,101267.19
2024-04-18T11:36:03.209Z,101267.59
2024-04-18T11:38:34.199Z,101266.78
2024-04-18T11:41:04.508Z,101258.72
2024-04-18T11:43:34.620Z,101253.88
2024-04-18T11:46:07.773Z,101251.06
2024-04-18T11:48:39.071Z,101241.78
2024-04-18T11:51:09.425Z,101247.06
2024-04-18T11:53:56.708Z,101232.13
2024-04-18T11:56:39.652Z,101230.94
2024-04-18T11:59:48.105Z,101225.28
2024-04-18T12:02:39.125Z,101226.06
2024-04-18T12:05:24.708Z,101223.25
2024-04-18T12:08:07.545Z,101214.00
2024-04-18T12:10:40.850Z,101223.66
2024-04-18T12:13:11.223Z,101220.84
2024-04-18T12:15:59.341Z,101218.84
2024-04-18T12:18:43.688Z,101223.28
2024-04-18T12:21:32.861Z,101218.06
2024-04-18T12:24:04.577Z,101214.41
2024-04-18T12:26:42.423Z,101216.03
2024-04-18T12:29:17.553Z,101210.38
2024-04-18T12:32:01.455Z,101224.50
2024-04-18T12:34:35.147Z,101224.09
2024-04-18T12:37:08.226Z,101223.28
2024-04-18T12:39:38.561Z,101224.09
2024-04-18T12:42:28.885Z,101226.47
2024-04-18T12:44:59.128Z,101225.66
2024-04-18T12:47:29.347Z,101222.03
2024-04-18T12:50:02.197Z,101221.63
2024-04-18T12:52:32.496Z,101213.56
2024-04-18T12:55:04.911Z,101216.41
2024-04-18T12:57:35.183Z,101211.19
2024-04-18T13:00:09.652Z,101217.63
2024-04-18T13:02:58.841Z,101207.16
2024-04-18T13:05:40.866Z,101209.16
2024-04-18T13:08:10.773Z,101208.78
2024-04-18T13:10:59.629Z,101207.16
2024-04-18T13:13:29.681Z,101211.19
2024-04-18T13:16:29.742Z,101202.31
2024-04-18T13:19:12.541Z,101203.13
2024-04-18T13:21:45.741Z,101195.88
2024-04-18T13:24:17.744Z,101200.72
2024-04-18T13:26:57.011Z,101211.19
2024-04-18T13:29:28.116Z,101204.75
2024-04-18T13:32:16.464Z,101207.97
2024-04-18T13:34:48.778Z,101203.53
2024-04-18T13:37:21.586Z,101198.69
2024-04-18T13:40:11.888Z,101193.44
2024-04-18T13:43:00.746Z,101198.69
2024-04-18T13:45:29.404Z,101193.44
2024-04-18T13:47:59.856Z,101196.72
2024-04-18T13:50:44.961Z,101192.25
2024-04-18T13:53:17.650Z,101191.03
2024-04-18T13:55:52.082Z,101186.97
2024-04-18T13:58:24.087Z,101189.41
2024-04-18T14:01:03.214Z,101191.03
2024-04-18T14:03:33.993Z,101188.63
2024-04-18T14:06:07.714Z,101190.22
2024-04-18T14:08:44.427Z,101184.63
2024-04-18T14:11:32.903Z,101178.16
2024-04-18T14:14:08.314Z,101176.56
2024-04-18T14:16:54.614Z,101178.22
2024-04-18T14:19:34.054Z,101168.53
2024-04-18T14:22:07.950Z,101165.28
2024-04-18T14:24:41.593Z,101169.75
2024-04-18T14:27:20.332Z,101172.56
2024-04-18T14:30:03.291Z,101169.31
2024-04-18T14:32:37.151Z,101169.31
2024-04-18T14:35:07.667Z,101165.28
2024-04-18T14:37:37.786Z,101166.91
2024-04-18T14:40:13.983Z,101156.44
2024-04-18T14:42:44.226Z,101154.81
2024-04-18T14:45:16.737Z,101150.78
2024-04-18T14:47:46.767Z,101151.59
2024-04-18T14:50:16.749Z,101152.81
2024-04-18T14:52:46.695Z,101159.63
2024-04-18T14:55:34.177Z,101158.44
2024-04-18T14:58:19.224Z,101158.00
2024-04-18T15:00:53.253Z,101148.34
2024-04-18T15:03:23.790Z,101162.88
2024-04-18T15:05:55.992Z,101151.59
2024-04-18T15:08:41.330Z,101152.81
2024-04-18T15:11:30.701Z,101149.16
2024-04-18T15:14:09.618Z,101154.41
2024-04-18T15:16:43.094Z,101148.78
2024-04-18T15:19:13.825Z,101155.63
2024-04-18T15:22:19.282Z,101148.34
2024-04-18T15:24:50.037Z,101147.97
2024-04-18T15:27:22.713Z,101144.34
2024-04-18T15:29:52.626Z,101140.31
2024-04-18T15:32:25.596Z,101150.38
2024-04-18T15:35:14.191Z,101149.19
2024-04-18T15:38:02.726Z,101151.59
2024-04-18T15:40:35.224Z,101146.78
2024-04-18T15:43:10.850Z,101145.16
2024-04-18T15:45:41.829Z,101139.50
2024-04-18T15:48:24.446Z,101147.16
2024-04-18T15:50:58.324Z,101147.97
2024-04-18T15:53:34.636Z,101141.16
2024-04-18T15:56:11.257Z,101146.34
2024-04-18T15:59:03.674Z,101141.16
2024-04-18T16:01:50.880Z,101150.38
2024-04-18T16:04:39.710Z,101154.00
2024-04-18T16:07:09.690Z,101152.00
2024-04-18T16:09:54.873Z,101145.16
2024-04-18T16:12:24.920Z,101153.22
2024-04-18T16:15:06.981Z,101147.97
2024-04-18T16:17:56.938Z,101151.59
2024-04-18T16:20:26.810Z,101154.81
2024-04-18T16:22:56.953Z,101154.81
2024-04-18T16:25:31.359Z,101145.94
2024-04-18T16:28:02.406Z,101163.72
2024-04-18T16:30:35.004Z,101155.25
2024-04-18T16:33:05.289Z,101147.59
2024-04-18T16:35:35.304Z,101153.63
2024-04-18T16:38:14.169Z,101152.44
2024-04-18T16:40:53.156Z,101143.97
2024-04-18T16:43:34.642Z,101148.38
2024-04-18T16:46:09.399Z,101142.72
2024-04-18T16:48:40.488Z,101142.31
2024-04-18T16:51:10.668Z,101129.41
2024-04-18T16:53:59.595Z,101132.25
2024-04-18T16:56:49.474Z,101135.88
2024-04-18T16:59:19.676Z,101134.66
2024-04-18T17:01:52.357Z,101135.50
2024-04-18T17:04:22.334Z,101132.69
2024-04-18T17:07:08.883Z,101144.34
2024-04-18T17:10:14.066Z,101135.50
2024-04-18T17:13:04.403Z,101137.88
2024-04-18T17:15:52.900Z,101133.47
2024-04-18T17:18:25.752Z,101131.47
2024-04-18T17:21:01.290Z,101129.84
2024-04-18T17:23:32.246Z,101135.50
2024-04-18T17:26:02.187Z,101137.47
2024-04-18T17:28:32.160Z,101137.09
2024-04-18T17:31:04.803Z,101137.09
2024-04-18T17:33:37.884Z,101132.69
2024-04-18T17:36:08.654Z,101131.47
2024-04-18T17:38:48.899Z,101137.09
2024-04-18T17:41:31.168Z,101128.63
2024-04-18T17:44:19.775Z,101137.94
2024-04-18T17:46:58.936Z,101134.28
2024-04-18T17:49:31.910Z,101129.84
2024-04-18T17:52:01.776Z,101129.47
2024-04-18T17:54:31.917Z,101135.94
2024-04-18T17:57:01.893Z,101129.06
2024-04-18T17:59:31.987Z,101136.34
2024-04-18T18:02:01.935Z,101138.75
2024-04-18T18:04:34.634Z,101137.09
2024-04-18T18:07:04.704Z,101139.94
2024-04-18T18:09:34.712Z,101137.09
2024-04-18T18:12:04.664Z,101142.75
2024-04-18T18:14:32.291Z,101146.00
2024-04-18T18:17:03.647Z,101143.19
2024-04-18T18:19:36.609Z,101137.09
2024-04-18T18:22:07.192Z,101138.75
2024-04-18T18:24:38.005Z,101137.09
2024-04-18T18:27:08.224Z,101138.75
2024-04-18T18:29:35.451Z,101138.75
2024-04-18T18:32:14.309Z,101140.38
2024-04-18T18:34:46.963Z,101138.75
2024-04-18T18:37:17.046Z,101098.66
2024-04-18T18:40:05.332Z,101144.41
2024-04-18T18:42:35.263Z,101150.06
2024-04-18T18:45:02.504Z,101156.50
2024-04-18T18:47:32.337Z,101158.13
2024-04-18T18:50:21.459Z,101168.59
2024-04-18T18:52:51.961Z,101168.59
2024-04-18T18:55:35.467Z,101162.19
2024-04-18T18:58:05.256Z,101174.25
2024-04-18T19:00:32.488Z,101168.16
2024-04-18T19:03:20.261Z,101178.28
2024-04-18T19:05:51.491Z,101178.28
2024-04-18T19:08:21.459Z,101165.34
2024-04-18T19:10:57.373Z,101170.94
2024-04-18T19:13:24.653Z,101160.47
2024-04-18T19:16:00.770Z,101167.34
2024-04-18T19:18:28.438Z,101165.34
2024-04-18T19:21:01.109Z,101165.34
2024-04-18T19:23:37.916Z,101163.72
2024-04-18T19:26:08.145Z,101162.88
2024-04-18T19:28:35.295Z,101160.47
2024-04-18T19:31:05.292Z,101154.00
2024-04-18T19:33:32.629Z,101153.22
2024-04-18T19:36:05.922Z,101153.63
2024-04-18T19:38:33.737Z,101144.75
2024-04-18T19:41:25.255Z,101141.09
2024-04-18T19:43:53.930Z,101143.13
2024-04-18T19:46:25.464Z,101147.16
2024-04-18T19:49:21.743Z,101143.53
2024-04-18T19:51:57.357Z,101142.69
2024-04-18T19:54:27.442Z,101134.66
2024-04-18T19:56:54.708Z,101143.94
2024-04-18T19:59:25.096Z,101130.63
2024-04-18T20:01:52.346Z,101143.53
2024-04-18T20:04:22.296Z,101145.94
2024-04-18T20:06:49.678Z,101141.91
2024-04-18T20:09:22.347Z,101133.03
2024-04-18T20:11:49.543Z,101141.91
2024-04-18T20:14:22.564Z,101139.50
2024-04-18T20:16:49.739Z,101139.50
2024-04-18T20:19:19.721Z,101143.53
2024-04-18T20:21:47.093Z,101133.84
2024-04-18T20:24:17.468Z,101140.31
2024-04-18T20:27:06.152Z,101140.31
2024-04-18T20:29:47.888Z,101142.31
2024-04-18T20:32:21.382Z,101141.91
2024-04-18T20:34:51.492Z,101141.91
2024-04-18T20:37:18.822Z,101143.13
2024-04-18T20:39:48.868Z,101139.09
2024-04-18T20:42:18.995Z,101149.97
2024-04-18T20:45:04.812Z,101149.97
2024-04-18T20:47:32.335Z,101140.72
2024-04-18T20:50:03.507Z,101153.22
2024-04-18T20:52:30.986Z,101150.78
2024-04-18T20:55:00.889Z,101147.56
2024-04-18T20:57:30.756Z,101153.22
2024-04-18T21:00:00.531Z,101150.78
2024-04-18T21:02:28.611Z,101157.25
2024-04-18T21:04:58.957Z,101147.56
2024-04-18T21:07:26.177Z,101153.63
2024-04-18T21:09:56.111Z,101150.38
2024-04-18T21:12:25.551Z,101146.34
2024-04-18T21:14:58.129Z,101139.09
2024-04-18T21:17:25.584Z,101127.81
2024-04-18T21:19:55.519Z,101123.38
2024-04-18T21:22:22.715Z,101133.44
2024-04-18T21:24:52.855Z,101130.63
2024-04-18T21:27:20.066Z,101123.78
2024-04-18T21:29:49.955Z,101137.88
2024-04-18T21:32:19.903Z,101122.56
2024-04-18T21:34:49.860Z,101131.47
2024-04-18T21:37:17.341Z,101126.19
2024-04-18T21:39:47.496Z,101126.59
2024-04-18T21:42:14.749Z,101120.53
2024-04-18T21:44:44.791Z,101126.59
2024-04-18T21:47:11.993Z,101125.78
2024-04-18T21:49:44.629Z,101124.19
2024-04-18T21:52:11.971Z,101126.59
2024-04-18T21:54:41.925Z,101121.75
2024-04-18T21:57:09.287Z,101125.78
2024-04-18T21:59:39.421Z,101124.94
2024-04-18T22:02:06.790Z,101123.38
2024-04-18T22:04:36.747Z,101124.56
2024-04-18T22:07:09.922Z,101111.63
2024-04-18T22:09:39.911Z,101098.38
2024-04-18T22:12:07.354Z,101099.94
2024-04-18T22:14:37.418Z,101102.34
2024-04-18T22:17:05.322Z,101101.56
2024-04-18T22:19:35.508Z,101103.16
2024-04-18T22:22:02.844Z,101104.81
2024-04-18T22:24:35.532Z,101100.78
2024-04-18T22:27:03.087Z,101086.22
2024-04-18T22:29:33.075Z,101091.88
2024-04-18T22:32:00.531Z,101089.50
2024-04-18T22:34:36.713Z,101089.50
2024-04-18T22:37:25.026Z,101089.50
2024-04-18T22:39:57.603Z,101085.47
2024-04-18T22:42:24.841Z,101085.47
2024-04-18T22:44:54.915Z,101087.88
2024-04-18T22:47:22.445Z,101082.22
2024-04-18T22:49:53.642Z,101074.16
2024-04-18T22:52:20.845Z,101076.59
2024-04-18T22:54:50.891Z,101072.94
2024-04-18T22:57:20.991Z,101071.72
2024-04-18T22:59:50.994Z,101072.56
2024-04-18T23:02:18.611Z,101072.56
2024-04-18T23:04:48.586Z,101063.66
2024-04-18T23:07:15.923Z,101054.78
2024-04-18T23:09:46.316Z,101058.81
2024-04-18T23:12:13.727Z,101059.22
2024-04-18T23:14:46.464Z,101048.34
2024-04-18T23:17:13.774Z,101037.06
2024-04-18T23:19:43.754Z,101041.06
2024-04-18T23:22:11.002Z,101045.09
2024-04-18T23:24:40.855Z,101049.97
2024-04-18T23:27:08.197Z,101043.53
2024-04-18T23:29:38.246Z,101039.50
2024-04-18T23:32:08.644Z,101037.84
2024-04-18T23:34:38.573Z,101032.19
2024-04-18T23:37:06.040Z,101033.00
2024-04-18T23:39:36.147Z,101034.63
2024-04-18T23:42:03.490Z,101032.19
2024-04-18T23:44:33.461Z,101029.78
2024-04-18T23:47:05.235Z,101020.13
2024-04-18T23:49:37.887Z,101018.91
2024-04-18T23:52:08.153Z,101017.31
2024-04-18T23:54:35.637Z,101018.50
2024-04-18T23:57:05.704Z,101022.53
2024-04-18T23:59:32.954Z,101016.88
